• Join FlightAware (Why Join?)
  • Login
  • US Flag 
05:34AM EDT


 

Airport Tracker/Info


-or-


 

Live Flight TrackerFlight Track Log ✈ EJA947 ✈ 17-Apr-2013 ✈ KPTK - KTEB

Flight Track Log - Related Links

Times and Time Zones

All times are in EDT time to prevent confusion due to time zone crossing. See the EJA947 flight status page for this flight to view local times or setup timezone preferences in your user account.

Time Position Orientation Groundspeed Altitude Reporting Facility
EDT Latitude Longitude Course Direction KTS MPH feet Rate Location/Type
09:04PM 42.6669 -83.3969 85° East 213 245 2,100  Level FAA TRACON SMA TRACON (SMA)
09:04PM 42.6689 -83.3661 85° East 199 229 3,000 2,820 Climbing FAA TRACON SMA TRACON (SMA)
09:04PM 42.6719 -83.3367 82° East 270 311 4,000 3,480 Climbing FAA TRACON SMA TRACON (SMA)
09:05PM 42.6692 -83.3108 98° East 248 285 5,300 3,720 Climbing FAA TRACON SMA TRACON (SMA)
09:05PM 42.6561 -83.2756 117° Southeast 258 297 6,500 2,400 Climbing FAA TRACON SMA TRACON (SMA)
09:05PM 42.6431 -83.2472 122° Southeast 286 329 6,900 600 Climbing FAA TRACON SMA TRACON (SMA)
09:06PM 42.6286 -83.2181 124° Southeast 298 343 6,900 240 Level FAA TRACON SMA TRACON (SMA)
09:06PM 42.6128 -83.1908 128° Southeast 295 339 7,100  Climbing FAA TRACON SMA TRACON (SMA)
09:06PM 42.5925 -83.1611 133° Southeast 276 318 6,900 300 Descending FAA TRACON SMA TRACON (SMA)
09:07PM 42.5728 -83.1442 148° Southeast 279 321 7,300 2,580 Climbing FAA TRACON SMA TRACON (SMA)
09:07PM 42.5483 -83.1203 144° Southeast 285 328 8,600 3,300 Climbing FAA TRACON SMA TRACON (SMA)
09:07PM 42.5297 -83.1017 144° Southeast 285 328 9,500 2,880 Climbing FAA TRACON SMA TRACON (SMA)
09:08PM 42.5072 -83.0806 145° Southeast 289 333 10,600 3,600 Climbing FAA TRACON SMA TRACON (SMA)
09:08PM 42.4822 -83.0558 144° Southeast 292 336 11,900 3,300 Climbing FAA TRACON SMA TRACON (SMA)
09:08PM 42.4614 -83.0356 144° Southeast 292 336 12,800 1,680 Climbing FAA TRACON SMA TRACON (SMA)
09:09PM 42.4394 -83.0142 144° Southeast 316 364 13,000 300 Climbing FAA TRACON SMA TRACON (SMA)
09:09PM 42.4153 -82.9911 145° Southeast 350 403 13,000  Level FAA TRACON SMA TRACON (SMA)
09:09PM 42.3828 -82.9617 146° Southeast 372 428 13,000  Level FAA TRACON SMA TRACON (SMA)
09:10PM 42.3597 -82.9289 134° Southeast 407 468 13,000 120 Level FAA TRACON SMA TRACON (SMA)
09:10PM 42.3478 -82.8825 109° East 433 498 13,100 420 Climbing FAA TRACON SMA TRACON (SMA)
09:10PM 42.3417 -82.8189 97° East 446 513 13,300 2,520 Climbing FAA TRACON SMA TRACON (SMA)
09:11PM 42.3531 -82.7708 72° East 448 516 14,800 3,720 Climbing FAA TRACON SMA TRACON (SMA)
09:11PM 42.3750 -82.7342 51° Northeast 422 486 15,800 3,120 Climbing FAA TRACON SMA TRACON (SMA)
09:11PM 42.4128 -82.7047 30° Northeast 409 471 16,900 2,820 Climbing FAA TRACON SMA TRACON (SMA)
09:12PM 42.4431 -82.6825 28° Northeast 406 467 17,700 2,400 Climbing FAA TRACON SMA TRACON (SMA)
09:12PM 42.4736 -82.6608 28° Northeast 403 464 18,500 2,820 Climbing FAA TRACON SMA TRACON (SMA)
09:12PM 42.5103 -82.6333 29° Northeast 396 456 19,600 2,700 Climbing FAA TRACON SMA TRACON (SMA)
09:13PM 42.5381 -82.6081 34° Northeast 396 456 20,300 2,100 Climbing FAA TRACON SMA TRACON (SMA)
09:13PM 42.5650 -82.5797 38° Northeast 403 464 21,000 2,400 Climbing FAA TRACON SMA TRACON (SMA)
09:13PM 42.5997 -82.5442 37° Northeast 410 472 21,900 2,220 Climbing FAA TRACON SMA TRACON (SMA)
09:14PM 42.6269 -82.5150 38° Northeast 406 467 22,500 1,620 Climbing FAA TRACON SMA TRACON (SMA)
09:14PM 42.6547 -82.4861 37° Northeast 408 470 23,000 1,920 Climbing FAA TRACON SMA TRACON (SMA)
09:14PM 42.6908 -82.4503 36° Northeast 414 476 23,800 1,620 Climbing FAA TRACON SMA TRACON (SMA)
09:15PM 42.7050 -82.4350 38° Northeast 415 478 24,100 420 Climbing FAA TRACON SMA TRACON (SMA)
09:15PM 42.7050 -82.4350 360° North 415 478 24,100 2,040 Level FAA TRACON SMA TRACON (SMA)
09:16PM 42.7864 -82.2156 63° Northeast 400 460 27,100 1,860 Climbing Cleveland Center
09:17PM 42.7406 -82.0392 109° East 412 474 28,100 960 Climbing Cleveland Center
09:18PM 42.7033 -81.8517 105° East 455 524 29,100 960 Climbing Cleveland Center
09:19PM 42.6653 -81.6900 108° East 490 564 30,100 960 Climbing Cleveland Center
09:20PM 42.6253 -81.5031 106° East 506 582 31,100 960 Climbing Cleveland Center
09:21PM 42.5767 -81.2994 108° East 511 588 32,100 900 Climbing Cleveland Center
09:22PM 42.5319 -81.1100 108° East 517 595 33,000 1,140 Climbing Cleveland Center
09:23PM 42.4869 -80.9153 107° East 534 615 34,400 1,800 Climbing Cleveland Center
09:24PM 42.4392 -80.7211 108° East 542 624 36,700 1,260 Climbing Cleveland Center
09:25PM 42.3914 -80.5186 108° East 550 633 37,000 120 Climbing Cleveland Center
09:26PM 42.3411 -80.3164 109° East 565 650 37,000  Level Cleveland Center
09:27PM 42.2947 -80.1172 107° East 565 650 37,000  Level Cleveland Center
09:28PM 42.2542 -79.9183 105° East 554 638 37,000  Level Cleveland Center
09:29PM 42.2111 -79.7197 106° East 549 632 37,000 -360 Level Cleveland Center
09:30PM 42.1764 -79.5436 105° East 549 632 36,300 -1,020 Descending Cleveland Center
09:31PM 42.1369 -79.3539 106° East 538 619 35,000 -660 Descending Cleveland Center
09:32PM 42.0950 -79.1617 106° East 528 608 35,000  Level Cleveland Center
09:33PM 42.0633 -78.9667 102° East 528 608 35,000  Level Cleveland Center
09:34PM 42.0228 -78.7664 105° East 539 620 35,000  Level Cleveland Center
09:35PM 41.9797 -78.5664 106° East 544 626 35,000  Level Cleveland Center
09:36PM 41.9408 -78.3694 105° East 549 632 35,000  Level Cleveland Center
09:38PM 41.8697 -78.0408 106° East 551 634 35,000  Level New York Center
09:39PM 41.8292 -77.8497 106° East 546 628 35,000  Level New York Center
09:40PM 41.7886 -77.6533 105° East 546 628 35,000  Level New York Center
09:41PM 41.7475 -77.4603 106° East 546 628 35,000  Level New York Center
09:42PM 41.7039 -77.2697 107° East 546 628 35,000 -180 Level New York Center
09:43PM 41.6619 -77.0822 107° East 541 623 34,700 -1,200 Descending New York Center
09:44PM 41.6072 -76.8939 111° Southeast 536 617 32,600 -2,400 Descending New York Center
09:45PM 41.5528 -76.6922 110° East 536 617 29,900 -2,640 Descending New York Center
09:46PM 41.5017 -76.5047 110° East 541 623 27,400 -2,460 Descending New York Center
09:47PM 41.4525 -76.3122 109° East 548 631 24,900 -2,400 Descending New York Center
09:48PM 41.4019 -76.1450 112° Southeast 543 625 22,700 -2,400 Descending New York Center
09:49PM 41.3533 -75.9725 111° Southeast 521 600 20,200 -2,340 Descending New York Center
09:50PM 41.3061 -75.8142 112° Southeast 494 568 18,000 -2,460 Descending New York Center
09:51PM 41.2569 -75.6447 111° Southeast 463 533 15,300 -2,460 Descending New York Center
09:52PM 41.2142 -75.5150 114° Southeast 429 494 13,100 -1,800 Descending New York Center
09:53PM 41.1675 -75.3767 114° Southeast 394 453 11,700 -1,620 Descending New York Center
09:54PM 41.1303 -75.2639 114° Southeast 359 413 9,900 -1,680 Descending New York Center
09:55PM 41.0947 -75.1597 114° Southeast 317 365 8,500 -1,500 Descending New York Center
09:56PM 41.0644 -75.0722 115° Southeast 292 336 7,000 -1,260 Descending New York Center
09:57PM 41.0203 -74.9733 121° Southeast 280 322 6,000 -600 Descending New York Center
09:58PM 40.9836 -74.8858 119° Southeast 280 322 5,800 -540 Descending New York Center
09:59PM 40.9450 -74.7983 120° Southeast 280 322 5,000 -780 Descending New York Center
10:00PM 40.9061 -74.7192 123° Southeast 275 316 4,300 -540 Descending New York Center
10:01PM 40.8517 -74.6583 140° Southeast 259 298 4,000 -600 Descending New York Center
10:02PM 40.8000 -74.6000 139° Southeast 228 262 3,000 -540 Descending New York TRACON
10:03PM 40.7500 -74.5500 143° Southeast 216 249 3,000  Level New York TRACON
10:04PM 40.7333 -74.4833 108° East 204 235 3,000  Level New York TRACON
10:05PM 40.7167 -74.4167 108° East 202 232 3,000 -540 Level New York TRACON
10:06PM 40.7167 -74.3500 90° East 194 223 2,000 -540 Descending New York TRACON
10:07PM 40.7167 -74.2833 90° East 160 184 2,000 -120 Level New York TRACON
10:08PM 40.7333 -74.2333 66° East 168 193 1,800 -300 Descending New York TRACON
10:09PM 40.7667 -74.1833 49° Northeast 155 178 1,500 -180 Descending New York TRACON
10:10PM 40.8000 -74.1500 37° Northeast 147 169 1,500 -360 Level New York TRACON
10:11PM 40.8167 -74.1000 66° East 140 161 800 -720 Descending New York TRACON
10:13PM 40.8500 -74.0500 70° East  Level FlightAware Approximate
10:20PM 40.8501 -74.0608 70° East  Level Estimated